Weather at Lower Manor Farm Airstrip

Public forecast

Using degrees Celsius for public forecast. Weather courtesy of forecast.io.

Closest aviation weather report (METAR) to Lower Manor Farm Airstrip

Closest report is RNAS Yeovilton, 23.4 nm (43.3 km) NNW. Retrieved 2021/09/27 00:50 UTC (19 minutes ago):

EGDY 270050Z AUTO 17014KT 9999 SCT013/// BKN021/// 17/16 Q1005 RERA

Closest aviation forecast (TAF) to Lower Manor Farm Airstrip

Forecast is more than 12 hours old.

Closest forecast is RNAS Yeovilton, 23.4 nm (43.3 km) NNW. Retrieved 2020/10/05 06:30 UTC (12 months ago):

TAF TAF EGDY 051025Z 0506/0518 CNL